createdAt,value
2018-05-24T00:02:26.562Z,12.70
2018-05-24T00:07:56.339Z,13.40
2018-05-24T00:10:23.829Z,14.23
2018-05-24T00:12:51.592Z,13.70
2018-05-24T00:15:19.142Z,13.80
2018-05-24T00:17:46.681Z,13.77
2018-05-24T00:20:14.345Z,14.17
2018-05-24T00:22:41.869Z,12.73
2018-05-24T00:25:09.401Z,14.27
2018-05-24T00:27:36.946Z,14.57
2018-05-24T00:30:04.483Z,14.57
2018-05-24T00:32:32.037Z,14.37
2018-05-24T00:35:00.434Z,14.03
2018-05-24T00:37:28.063Z,15.93
2018-05-24T00:39:55.596Z,15.40
2018-05-24T00:42:23.130Z,12.90
2018-05-24T00:44:50.704Z,14.17
2018-05-24T00:47:18.993Z,14.30
2018-05-24T00:49:46.538Z,15.10
2018-05-24T00:52:14.986Z,15.90
2018-05-24T00:54:42.548Z,15.23
2018-05-24T00:57:10.250Z,15.47
2018-05-24T00:59:38.610Z,15.33
2018-05-24T01:02:06.958Z,16.93
2018-05-24T01:04:34.563Z,15.10
2018-05-24T01:07:02.173Z,14.67
2018-05-24T01:09:30.517Z,15.13
2018-05-24T01:11:58.077Z,16.13
2018-05-24T01:14:25.642Z,16.30
2018-05-24T01:16:53.268Z,16.40
2018-05-24T01:19:20.841Z,16.27
2018-05-24T01:21:48.406Z,17.03
2018-05-24T01:24:16.705Z,16.67
2018-05-24T01:26:44.337Z,18.17
2018-05-24T01:29:11.865Z,16.60
2018-05-24T01:31:39.427Z,18.63
2018-05-24T01:34:07.030Z,16.57
2018-05-24T01:36:46.572Z,17.60
2018-05-24T01:39:14.146Z,16.90
2018-05-24T01:41:41.676Z,16.70
2018-05-24T01:44:09.206Z,18.27
2018-05-24T01:46:36.794Z,17.57
2018-05-24T01:49:04.326Z,17.00
2018-05-24T01:51:31.862Z,17.03
2018-05-24T01:53:59.516Z,17.97
2018-05-24T01:56:27.057Z,17.87
2018-05-24T01:58:54.606Z,18.93
2018-05-24T02:01:22.151Z,17.90
2018-05-24T02:03:49.681Z,16.47
2018-05-24T02:06:17.234Z,17.90
2018-05-24T02:08:44.950Z,19.63
2018-05-24T02:11:12.486Z,18.77
2018-05-24T02:13:40.017Z,17.53
2018-05-24T02:16:07.578Z,17.87
2018-05-24T02:18:35.127Z,17.73
2018-05-24T02:21:02.678Z,17.83
2018-05-24T02:23:30.341Z,20.90
2018-05-24T02:25:57.878Z,18.50
2018-05-24T02:28:25.449Z,21.00
2018-05-24T02:30:52.986Z,17.67
2018-05-24T02:33:20.523Z,17.73
2018-05-24T02:35:48.204Z,19.97
2018-05-24T02:38:15.641Z,19.00
2018-05-24T02:40:43.167Z,17.30
2018-05-24T02:43:10.717Z,18.20
2018-05-24T02:45:38.306Z,17.73
2018-05-24T02:48:05.793Z,17.53
2018-05-24T02:50:33.305Z,17.70
2018-05-24T02:53:00.893Z,18.77
2018-05-24T02:55:28.611Z,17.87
2018-05-24T02:57:56.134Z,17.63
2018-05-24T03:00:23.677Z,17.50
2018-05-24T03:02:51.365Z,18.20
2018-05-24T03:05:18.924Z,17.37
2018-05-24T03:07:46.446Z,19.17
2018-05-24T03:10:14.121Z,17.83
2018-05-24T03:12:41.653Z,21.30
2018-05-24T03:15:09.963Z,18.77
2018-05-24T03:17:37.599Z,19.40
2018-05-24T03:20:05.137Z,18.50
2018-05-24T03:22:32.673Z,20.37
2018-05-24T03:25:00.331Z,19.13
2018-05-24T03:27:27.883Z,19.37
2018-05-24T03:29:55.435Z,19.20
2018-05-24T03:32:23.003Z,19.73
2018-05-24T03:34:50.537Z,17.97
2018-05-24T03:37:18.065Z,17.87
2018-05-24T03:39:46.365Z,21.33
2018-05-24T03:42:13.971Z,20.00
2018-05-24T03:44:41.508Z,20.43
2018-05-24T03:47:09.080Z,23.37
2018-05-24T03:49:36.816Z,22.87
2018-05-24T03:52:04.424Z,23.83
2018-05-24T03:54:32.649Z,22.37
2018-05-24T03:57:00.356Z,20.20
2018-05-24T04:02:51.993Z,21.93
2018-05-24T04:05:20.317Z,21.23
2018-05-24T04:07:47.863Z,21.63
2018-05-24T04:10:15.718Z,20.10
2018-05-24T04:12:44.538Z,26.73
2018-05-24T04:15:12.091Z,24.47
2018-05-24T04:17:40.431Z,21.03
2018-05-24T04:20:08.026Z,23.37
2018-05-24T04:22:35.577Z,20.83
2018-05-24T04:25:03.354Z,24.73
2018-05-24T04:27:30.938Z,21.67
2018-05-24T04:29:58.503Z,23.77
2018-05-24T04:32:26.088Z,22.43
2018-05-24T04:34:53.630Z,24.03
2018-05-24T04:37:21.293Z,22.43
2018-05-24T04:39:48.895Z,23.03
2018-05-24T04:42:16.450Z,21.73
2018-05-24T04:44:44.315Z,22.07
2018-05-24T04:47:12.614Z,20.77
2018-05-24T04:49:40.218Z,22.13
2018-05-24T04:52:07.884Z,22.33
2018-05-24T04:54:36.173Z,21.93
2018-05-24T04:57:03.754Z,21.27
2018-05-24T04:59:31.300Z,19.67
2018-05-24T05:01:59.006Z,20.90
2018-05-24T05:04:26.547Z,19.27
2018-05-24T05:06:54.086Z,18.37
2018-05-24T05:09:22.538Z,23.80
2018-05-24T05:11:50.078Z,19.27
2018-05-24T05:14:17.678Z,17.20
2018-05-24T05:16:45.222Z,15.93
2018-05-24T05:19:12.773Z,17.50
2018-05-24T05:21:41.091Z,16.80
2018-05-24T05:24:08.723Z,21.83
2018-05-24T05:26:36.288Z,18.97
2018-05-24T05:29:03.829Z,17.40
2018-05-24T05:31:31.409Z,19.07
2018-05-24T05:33:58.990Z,20.53
2018-05-24T05:36:26.556Z,17.53
2018-05-24T05:38:54.118Z,19.10
2018-05-24T05:41:21.780Z,16.53
2018-05-24T05:43:49.382Z,17.80
2018-05-24T05:46:16.952Z,18.23
2018-05-24T05:48:45.308Z,19.93
2018-05-24T05:51:12.883Z,18.30
2018-05-24T05:53:41.205Z,20.57
2018-05-24T05:56:08.747Z,17.77
2018-05-24T05:58:36.287Z,18.47
2018-05-24T06:01:03.823Z,19.60
2018-05-24T06:03:31.394Z,19.20
2018-05-24T06:05:59.023Z,18.57
2018-05-24T06:08:26.615Z,18.40
2018-05-24T06:10:54.160Z,18.63
2018-05-24T06:13:22.702Z,18.57
2018-05-24T06:15:50.265Z,20.17
2018-05-24T06:18:17.815Z,17.97
2018-05-24T06:20:46.135Z,17.90
2018-05-24T06:23:13.757Z,17.63
2018-05-24T06:25:41.292Z,18.10
2018-05-24T06:28:09.672Z,17.60
2018-05-24T06:30:37.289Z,17.10
2018-05-24T06:33:05.613Z,20.90
2018-05-24T06:35:33.169Z,18.37
2018-05-24T06:38:00.728Z,18.60
2018-05-24T06:40:28.361Z,18.37
2018-05-24T06:42:55.934Z,19.33
2018-05-24T06:45:23.457Z,18.57
2018-05-24T06:47:51.018Z,18.63
2018-05-24T06:50:18.575Z,19.70
2018-05-24T06:52:46.215Z,17.90
2018-05-24T06:55:13.799Z,19.97
2018-05-24T06:57:41.358Z,20.33
2018-05-24T07:00:09.682Z,23.17
2018-05-24T07:02:37.627Z,22.67
2018-05-24T07:05:05.184Z,20.73
2018-05-24T07:07:33.498Z,18.73
2018-05-24T07:10:01.832Z,18.63
2018-05-24T07:12:29.747Z,19.93
2018-05-24T07:14:57.388Z,21.57
2018-05-24T07:17:25.208Z,18.73
2018-05-24T07:19:53.110Z,20.77
2018-05-24T07:22:20.697Z,18.33
2018-05-24T07:24:48.347Z,16.50
2018-05-24T07:27:16.696Z,15.37
2018-05-24T07:29:44.473Z,20.10
2018-05-24T07:32:12.031Z,17.23
2018-05-24T07:34:39.597Z,19.30
2018-05-24T07:37:07.232Z,16.40
2018-05-24T07:39:34.798Z,15.73
2018-05-24T07:42:02.355Z,16.03
2018-05-24T07:44:30.115Z,15.87
2018-05-24T07:46:57.675Z,15.17
2018-05-24T07:49:25.251Z,15.93
2018-05-24T07:51:53.048Z,13.80
2018-05-24T07:54:20.590Z,14.63
2018-05-24T07:56:48.144Z,15.50
2018-05-24T07:59:15.787Z,14.73
2018-05-24T08:01:43.392Z,15.40
2018-05-24T08:04:10.890Z,13.07
2018-05-24T08:06:39.420Z,13.67
2018-05-24T08:09:07.741Z,14.37
2018-05-24T08:11:35.320Z,19.03
2018-05-24T08:14:03.132Z,13.53
2018-05-24T08:16:31.483Z,14.70
2018-05-24T08:19:00.143Z,14.33
2018-05-24T08:21:27.700Z,12.90
2018-05-24T08:23:55.316Z,13.77
2018-05-24T08:26:23.663Z,14.20
2018-05-24T08:28:51.219Z,14.33
2018-05-24T08:31:18.778Z,13.40
2018-05-24T08:33:46.347Z,13.80
2018-05-24T08:36:14.703Z,14.40
2018-05-24T08:38:42.307Z,14.87
2018-05-24T08:41:10.632Z,12.30
2018-05-24T08:43:38.532Z,13.20
2018-05-24T08:46:06.271Z,13.10
2018-05-24T08:48:33.856Z,12.03
2018-05-24T08:51:01.404Z,13.90
2018-05-24T08:53:29.113Z,11.73
2018-05-24T08:55:56.588Z,12.57
2018-05-24T08:58:24.163Z,11.93
2018-05-24T09:00:51.782Z,12.40
2018-05-24T09:03:19.332Z,12.20
2018-05-24T09:05:46.873Z,15.10
2018-05-24T09:08:15.594Z,12.57
2018-05-24T09:10:43.161Z,12.93
2018-05-24T09:13:11.511Z,12.07
2018-05-24T09:15:39.067Z,12.77
2018-05-24T09:18:06.711Z,12.97
2018-05-24T09:20:34.357Z,11.97
2018-05-24T09:23:01.903Z,11.20
2018-05-24T09:25:30.248Z,11.03
2018-05-24T09:27:57.787Z,11.03
2018-05-24T09:30:26.120Z,12.30
2018-05-24T09:32:53.801Z,13.53
2018-05-24T09:35:21.548Z,11.77
2018-05-24T09:37:49.084Z,11.00
2018-05-24T09:40:16.639Z,10.43
2018-05-24T09:42:45.007Z,10.27
2018-05-24T09:45:12.559Z,13.50
2018-05-24T09:47:40.098Z,10.90
2018-05-24T09:50:08.433Z,11.73
2018-05-24T09:52:36.003Z,12.00
2018-05-24T09:55:04.318Z,10.47
2018-05-24T09:57:31.859Z,16.83
2018-05-24T09:59:59.480Z,10.73
2018-05-24T10:02:27.009Z,11.07
2018-05-24T10:04:54.547Z,10.07
2018-05-24T10:07:22.975Z,13.97
2018-05-24T10:09:50.517Z,10.70
2018-05-24T10:12:18.055Z,11.57
2018-05-24T10:14:45.824Z,10.07
2018-05-24T10:17:13.382Z,12.03
2018-05-24T10:19:41.695Z,10.50
2018-05-24T10:22:10.003Z,11.00
2018-05-24T10:24:37.550Z,9.03
2018-05-24T10:27:05.092Z,10.30
2018-05-24T10:29:32.638Z,10.33
2018-05-24T10:32:00.198Z,10.33
2018-05-24T10:34:27.780Z,9.60
2018-05-24T10:36:55.407Z,9.50
2018-05-24T10:39:23.028Z,10.20
2018-05-24T10:41:50.585Z,9.87
2018-05-24T10:44:18.188Z,12.07
2018-05-24T10:46:45.791Z,8.80
2018-05-24T10:49:13.378Z,9.23
2018-05-24T10:51:40.927Z,9.20
2018-05-24T10:54:08.512Z,9.17
2018-05-24T10:56:36.032Z,8.43
2018-05-24T10:59:03.569Z,7.60
2018-05-24T11:01:31.133Z,9.00
2018-05-24T11:03:59.458Z,9.90
2018-05-24T11:06:27.251Z,9.93
2018-05-24T11:08:54.754Z,10.43
2018-05-24T11:11:22.491Z,11.67
2018-05-24T11:13:50.811Z,9.93
2018-05-24T11:16:18.356Z,10.90
2018-05-24T11:18:46.183Z,11.60
2018-05-24T11:21:14.737Z,12.80
2018-05-24T11:23:42.315Z,11.20
2018-05-24T11:26:09.880Z,11.10
2018-05-24T11:28:37.623Z,12.20
2018-05-24T11:31:05.182Z,10.30
2018-05-24T11:33:32.731Z,12.40
2018-05-24T11:36:00.412Z,11.40
2018-05-24T11:38:27.988Z,10.57
2018-05-24T11:40:56.295Z,10.73
2018-05-24T11:43:23.903Z,10.77
2018-05-24T11:45:51.391Z,14.23
2018-05-24T11:48:18.946Z,15.03
2018-05-24T11:50:46.488Z,12.57
2018-05-24T11:53:14.095Z,15.43
2018-05-24T11:55:42.405Z,12.63
2018-05-24T11:58:10.715Z,12.73
2018-05-24T12:00:38.304Z,11.63
2018-05-24T12:03:05.857Z,12.10
2018-05-24T12:05:33.443Z,10.70
2018-05-24T12:08:01.759Z,10.70
2018-05-24T12:10:30.091Z,12.00
2018-05-24T12:12:57.695Z,8.77
2018-05-24T12:15:26.056Z,9.40
2018-05-24T12:17:53.784Z,11.40
2018-05-24T12:20:21.337Z,9.93
2018-05-24T12:22:49.149Z,10.97
2018-05-24T12:25:16.687Z,12.30
2018-05-24T12:27:44.481Z,10.57
2018-05-24T12:30:12.795Z,11.77
2018-05-24T12:32:40.350Z,13.10
2018-05-24T12:35:08.136Z,11.83
2018-05-24T12:37:35.681Z,12.37
2018-05-24T12:40:03.238Z,12.87
2018-05-24T12:42:31.091Z,11.60
2018-05-24T12:44:58.647Z,11.63
2018-05-24T12:47:26.959Z,12.10
2018-05-24T12:49:54.523Z,12.40
2018-05-24T12:52:22.254Z,14.50
2018-05-24T12:54:50.587Z,12.03
2018-05-24T12:57:18.915Z,10.03
2018-05-24T12:59:46.450Z,11.00
2018-05-24T13:02:14.109Z,11.30
2018-05-24T13:04:41.635Z,9.63
2018-05-24T13:07:09.948Z,9.70
2018-05-24T13:09:37.619Z,10.07
2018-05-24T13:12:05.932Z,9.83
2018-05-24T13:14:34.255Z,9.87
2018-05-24T13:17:01.872Z,7.97
2018-05-24T13:19:29.943Z,8.27
2018-05-24T13:21:57.489Z,8.70
2018-05-24T13:24:25.879Z,8.03
2018-05-24T13:26:54.132Z,6.80
2018-05-24T13:29:21.718Z,7.53
2018-05-24T13:31:49.260Z,6.40
2018-05-24T13:34:17.558Z,7.00
2018-05-24T13:36:46.205Z,6.40
2018-05-24T13:39:13.753Z,8.27
2018-05-24T13:41:42.075Z,8.00
2018-05-24T13:44:09.663Z,7.40
2018-05-24T13:46:37.466Z,7.30
2018-05-24T13:49:05.005Z,7.23
2018-05-24T13:51:32.541Z,7.57
2018-05-24T13:54:00.259Z,5.90
2018-05-24T13:56:27.803Z,5.47
2018-05-24T13:58:55.346Z,6.40
2018-05-24T14:01:22.898Z,6.13
2018-05-24T14:03:50.461Z,6.90
2018-05-24T14:06:18.761Z,6.23
2018-05-24T14:08:46.461Z,6.10
2018-05-24T14:11:14.182Z,5.73
2018-05-24T14:13:42.537Z,5.17
2018-05-24T14:16:10.067Z,6.90
2018-05-24T14:18:37.766Z,5.47
2018-05-24T14:21:05.357Z,6.47
2018-05-24T14:23:32.888Z,6.83
2018-05-24T14:26:00.457Z,7.63
2018-05-24T14:28:28.005Z,7.07
2018-05-24T14:30:55.539Z,7.07
2018-05-24T14:33:23.202Z,8.27
2018-05-24T14:35:50.744Z,7.30
2018-05-24T14:38:18.350Z,7.67
2018-05-24T14:40:46.669Z,8.83
2018-05-24T14:43:15.027Z,7.53
2018-05-24T14:45:42.567Z,8.10
2018-05-24T14:48:10.140Z,7.33
2018-05-24T14:50:37.725Z,9.40
2018-05-24T14:53:05.278Z,7.77
2018-05-24T14:55:32.887Z,6.50
2018-05-24T14:58:00.435Z,6.73
2018-05-24T15:00:27.976Z,7.13
2018-05-24T15:02:55.506Z,7.03
2018-05-24T15:05:23.391Z,7.20
2018-05-24T15:07:50.936Z,10.60
2018-05-24T15:10:18.478Z,6.97
2018-05-24T15:12:46.783Z,7.50
2018-05-24T15:15:15.651Z,9.30
2018-05-24T15:17:43.203Z,12.17
2018-05-24T15:20:10.768Z,6.63
2018-05-24T15:22:39.073Z,7.10
2018-05-24T15:25:07.390Z,6.97
2018-05-24T15:27:34.938Z,7.90
2018-05-24T15:30:02.497Z,5.70
2018-05-24T15:32:30.175Z,6.77
2018-05-24T15:34:57.758Z,6.00
2018-05-24T15:37:25.288Z,5.07
2018-05-24T15:39:53.729Z,5.30
2018-05-24T15:42:21.303Z,4.93
2018-05-24T15:44:48.849Z,5.53
2018-05-24T15:47:16.397Z,5.50
2018-05-24T15:49:43.942Z,7.47
2018-05-24T15:52:11.492Z,5.03
2018-05-24T15:54:39.121Z,5.20
2018-05-24T15:57:06.687Z,5.37
2018-05-24T15:59:34.991Z,5.90
2018-05-24T16:02:03.305Z,6.27
2018-05-24T16:04:31.600Z,4.63
2018-05-24T16:06:59.150Z,9.57
2018-05-24T16:09:26.714Z,6.30
2018-05-24T16:11:54.251Z,5.40
2018-05-24T16:14:21.780Z,4.63
2018-05-24T16:16:49.344Z,6.93
2018-05-24T16:19:16.888Z,5.67
2018-05-24T16:21:45.266Z,5.27
2018-05-24T16:24:13.571Z,4.90
2018-05-24T16:26:41.139Z,4.83
2018-05-24T16:29:08.983Z,4.73
2018-05-24T16:31:36.537Z,5.30
2018-05-24T16:34:04.071Z,5.00
2018-05-24T16:36:31.635Z,4.20
2018-05-24T16:38:59.181Z,4.20
2018-05-24T16:41:26.738Z,4.40
2018-05-24T16:43:54.271Z,5.87
2018-05-24T16:46:22.748Z,3.70
2018-05-24T16:48:50.296Z,5.17
2018-05-24T16:51:17.837Z,3.50
2018-05-24T16:53:45.440Z,7.53
2018-05-24T16:56:13.737Z,3.50
2018-05-24T16:58:41.314Z,5.30
2018-05-24T17:01:09.632Z,4.17
2018-05-24T17:03:37.362Z,4.97
2018-05-24T17:06:04.910Z,6.23
2018-05-24T17:08:32.449Z,4.40
2018-05-24T17:11:00.281Z,4.33
2018-05-24T17:13:27.865Z,4.57
2018-05-24T17:15:56.164Z,4.07
2018-05-24T17:18:23.861Z,6.67
2018-05-24T17:20:51.396Z,6.17
2018-05-24T17:23:18.940Z,5.47
2018-05-24T17:25:46.545Z,4.93
2018-05-24T17:28:14.229Z,4.53
2018-05-24T17:30:41.782Z,5.00
2018-05-24T17:33:09.329Z,6.57
2018-05-24T17:35:37.097Z,5.43
2018-05-24T17:38:04.645Z,5.33
2018-05-24T17:40:32.178Z,7.17
2018-05-24T17:42:59.749Z,5.67
2018-05-24T17:45:27.279Z,6.20
2018-05-24T17:47:55.603Z,4.67
2018-05-24T17:50:23.301Z,5.37
2018-05-24T17:52:50.835Z,4.80
2018-05-24T17:55:19.159Z,4.53
2018-05-24T17:57:46.694Z,5.73
2018-05-24T18:00:14.269Z,5.97
2018-05-24T18:02:41.910Z,5.13
2018-05-24T18:05:11.163Z,4.47
2018-05-24T18:07:39.119Z,4.27
2018-05-24T18:10:07.507Z,3.73
2018-05-24T18:12:35.041Z,3.90
2018-05-24T18:15:02.583Z,4.70
2018-05-24T18:17:30.249Z,4.07
2018-05-24T18:19:57.805Z,5.93
2018-05-24T18:22:25.347Z,4.33
2018-05-24T18:24:53.797Z,7.73
2018-05-24T18:27:21.400Z,7.47
2018-05-24T18:29:48.899Z,6.10
2018-05-24T18:32:16.435Z,5.60
2018-05-24T18:34:43.995Z,5.23
2018-05-24T18:37:11.562Z,4.60
2018-05-24T18:39:39.883Z,5.60
2018-05-24T18:42:07.494Z,4.90
2018-05-24T18:44:35.320Z,6.23
2018-05-24T18:47:02.883Z,4.80
2018-05-24T18:49:30.484Z,4.80
2018-05-24T18:51:58.035Z,3.87
2018-05-24T18:54:25.570Z,5.77
2018-05-24T18:56:53.135Z,6.13
2018-05-24T18:59:20.683Z,5.30
2018-05-24T19:01:48.272Z,4.57
2018-05-24T19:04:16.281Z,5.77
2018-05-24T19:06:43.855Z,4.87
2018-05-24T19:09:11.411Z,3.80
2018-05-24T19:11:39.199Z,7.03
2018-05-24T19:14:07.012Z,6.17
2018-05-24T19:16:34.564Z,5.50
2018-05-24T19:19:02.873Z,6.00
2018-05-24T19:21:31.421Z,4.50
2018-05-24T19:23:58.967Z,5.03
2018-05-24T19:26:26.527Z,5.70
2018-05-24T19:28:54.159Z,4.03
2018-05-24T19:31:21.963Z,5.87
2018-05-24T19:33:49.503Z,7.60
2018-05-24T19:36:17.799Z,5.73
2018-05-24T19:38:46.272Z,6.33
2018-05-24T19:41:13.828Z,6.40
2018-05-24T19:43:41.363Z,6.30
2018-05-24T19:46:08.902Z,6.57
2018-05-24T19:48:36.452Z,5.70
2018-05-24T19:51:04.751Z,6.60
2018-05-24T19:53:33.076Z,11.47
2018-05-24T19:56:01.010Z,7.77
2018-05-24T19:58:28.552Z,7.50
2018-05-24T20:00:56.091Z,7.77
2018-05-24T20:03:23.991Z,9.10
2018-05-24T20:05:51.523Z,10.63
2018-05-24T20:08:19.073Z,9.07
2018-05-24T20:10:47.384Z,10.40
2018-05-24T20:13:15.125Z,8.00
2018-05-24T20:15:42.666Z,9.17
2018-05-24T20:18:10.209Z,9.33
2018-05-24T20:20:37.859Z,8.53
2018-05-24T20:23:05.459Z,8.93
2018-05-24T20:25:33.716Z,10.67
2018-05-24T20:28:01.336Z,10.97
2018-05-24T20:30:28.878Z,10.37
2018-05-24T20:32:56.466Z,10.93
2018-05-24T20:35:23.988Z,8.97
2018-05-24T20:37:51.546Z,8.70
2018-05-24T20:40:19.089Z,12.03
2018-05-24T20:42:46.790Z,10.07
2018-05-24T20:45:15.209Z,9.87
2018-05-24T20:47:42.775Z,13.90
2018-05-24T20:50:11.083Z,9.97
2018-05-24T20:52:39.392Z,9.23
2018-05-24T20:55:07.699Z,11.67
2018-05-24T20:57:35.236Z,9.73
2018-05-24T21:00:02.807Z,10.50
2018-05-24T21:02:30.465Z,10.00
2018-05-24T21:04:58.032Z,13.00
2018-05-24T21:07:25.580Z,11.67
2018-05-24T21:09:53.388Z,15.37
2018-05-24T21:12:21.717Z,12.17
2018-05-24T21:14:49.565Z,16.60
2018-05-24T21:17:17.098Z,9.97
2018-05-24T21:19:44.934Z,12.17
2018-05-24T21:22:12.531Z,13.83
2018-05-24T21:24:40.080Z,12.07
2018-05-24T21:27:07.754Z,12.63
2018-05-24T21:29:35.301Z,12.00
2018-05-24T21:32:03.617Z,10.77
2018-05-24T21:34:31.283Z,12.90
2018-05-24T21:36:58.820Z,12.07
2018-05-24T21:39:26.355Z,14.93
2018-05-24T21:41:54.671Z,14.20
2018-05-24T21:44:22.409Z,13.03
2018-05-24T21:46:49.969Z,12.37
2018-05-24T21:49:17.513Z,13.53
2018-05-24T21:51:45.833Z,16.97
2018-05-24T21:54:13.387Z,13.03
2018-05-24T21:56:41.358Z,13.07
2018-05-24T21:59:08.982Z,11.70
2018-05-24T22:01:36.540Z,13.00
2018-05-24T22:04:04.091Z,14.80
2018-05-24T22:06:32.387Z,11.07
2018-05-24T22:08:59.972Z,11.53
2018-05-24T22:11:27.512Z,12.17
2018-05-24T22:13:55.827Z,12.00
2018-05-24T22:16:23.813Z,17.80
2018-05-24T22:18:51.408Z,11.93
2018-05-24T22:21:18.963Z,11.47
2018-05-24T22:23:47.290Z,15.57
2018-05-24T22:26:15.063Z,15.43
2018-05-24T22:28:43.439Z,15.00
2018-05-24T22:31:10.976Z,13.40
2018-05-24T22:33:38.708Z,12.93
2018-05-24T22:36:06.251Z,12.67
2018-05-24T22:38:33.861Z,13.27
2018-05-24T22:41:02.180Z,11.73
2018-05-24T22:43:29.773Z,11.40
2018-05-24T22:45:57.448Z,14.97
2018-05-24T22:48:25.016Z,12.70
2018-05-24T22:50:52.668Z,14.83
2018-05-24T22:53:21.041Z,13.00
2018-05-24T22:55:48.579Z,13.30
2018-05-24T22:58:16.371Z,15.83
2018-05-24T23:00:43.912Z,14.40
2018-05-24T23:03:12.231Z,12.47
2018-05-24T23:05:39.786Z,15.80
2018-05-24T23:08:07.430Z,18.90
2018-05-24T23:10:35.037Z,15.60
2018-05-24T23:13:02.649Z,13.10
2018-05-24T23:15:31.291Z,16.03
2018-05-24T23:17:58.873Z,14.47
2018-05-24T23:20:26.420Z,14.53
2018-05-24T23:22:54.124Z,13.07
2018-05-24T23:25:22.582Z,20.70
2018-05-24T23:27:50.181Z,13.67
2018-05-24T23:30:17.768Z,15.60
2018-05-24T23:32:45.459Z,16.47
2018-05-24T23:35:13.061Z,16.27
2018-05-24T23:37:41.466Z,13.93
2018-05-24T23:40:09.053Z,14.13
2018-05-24T23:42:36.646Z,16.77
2018-05-24T23:45:04.956Z,20.23
2018-05-24T23:47:32.504Z,16.27
2018-05-24T23:50:00.122Z,13.87
2018-05-24T23:52:28.578Z,14.83
2018-05-24T23:54:56.157Z,15.83
2018-05-24T23:57:23.782Z,16.43
2018-05-24T23:59:52.117Z,18.13
